Time;durP1;ratioP1;P1;durP2;ratioP2;P2;SDS_P1;SDS_P2;PMS_P1;PMS_P2;Temp;Humidity;BMP_temperature;BMP_pressure;BME280_temperature;BME280_humidity;BME280_pressure;Samples;Min_cycle;Max_cycle;Signal;HPM_P1;HPM_P2
2022/11/27 15:50:18;;;;;;;;;14.75;14.00;;;;;11.70;62.25;100976.59;6308706;22;45845;-52
2022/11/27 15:52:43;;;;;;;;;15.50;14.75;;;;;11.70;61.96;100988.91;6340364;22;45251;-53
2022/11/27 15:55:16;;;;;;;;;16.25;12.75;;;;;11.77;61.78;100981.78;6339845;22;45288;-53
2022/11/27 15:57:42;;;;;;;;;11.25;10.75;;;;;11.68;61.58;100957.34;6339421;22;45440;-57
2022/11/27 16:00:11;;;;;;;;;12.00;11.75;;;;;11.76;61.80;100977.38;6339760;22;46121;-55
2022/11/27 16:02:38;;;;;;;;;14.25;12.50;;;;;11.75;61.67;100970.38;6338407;22;45341;-55
2022/11/27 16:05:05;;;;;;;;;23.00;16.50;;;;;11.75;61.57;100973.00;6340616;22;45418;-50
2022/11/27 16:07:30;;;;;;;;;11.75;11.00;;;;;11.75;61.55;100971.28;6339811;22;45548;-49
2022/11/27 16:09:56;;;;;;;;;12.50;12.50;;;;;11.71;61.58;100959.91;6340033;22;46145;-46
2022/11/27 16:12:21;;;;;;;;;13.00;11.75;;;;;11.74;61.71;100955.50;6340115;22;45271;-45
2022/11/27 16:14:46;;;;;;;;;12.25;11.25;;;;;11.76;61.61;100967.75;6340554;22;45846;-48
2022/11/27 16:17:12;;;;;;;;;11.00;8.00;;;;;11.71;61.92;100965.19;6340480;22;45288;-48
2022/11/27 16:19:37;;;;;;;;;18.75;17.00;;;;;11.73;61.46;100974.81;6339436;22;53091;-47
2022/11/27 16:22:02;;;;;;;;;12.00;12.00;;;;;11.76;61.60;100973.00;6334095;22;45350;-46
2022/11/27 16:24:28;;;;;;;;;15.75;15.25;;;;;11.77;61.48;100974.72;6340478;22;45491;-51
2022/11/27 16:26:53;;;;;;;;;23.75;21.00;;;;;11.81;61.23;100970.28;6337705;22;45274;-58
2022/11/27 16:29:19;;;;;;;;;19.50;16.00;;;;;11.82;61.58;100961.50;6340028;22;45426;-59
2022/11/27 16:31:44;;;;;;;;;18.25;17.75;;;;;11.83;61.26;100961.47;6339545;22;45343;-58
2022/11/27 16:34:09;;;;;;;;;14.25;14.25;;;;;11.81;61.28;100952.75;6340346;22;45289;-60
2022/11/27 16:36:35;;;;;;;;;14.00;14.00;;;;;11.81;61.26;100958.00;6340278;22;45251;-58
2022/11/27 16:39:00;;;;;;;;;17.25;14.00;;;;;11.84;61.43;100951.81;6340502;22;45316;-61
2022/11/27 16:41:26;;;;;;;;;15.25;14.50;;;;;11.80;61.24;100953.63;6341336;22;45381;-68
2022/11/27 16:43:53;;;;;;;;;15.75;14.00;;;;;11.83;61.22;100960.63;6341943;22;45212;-57
2022/11/27 16:46:29;;;;;;;;;17.75;14.00;;;;;11.82;61.24;100958.88;6341669;22;45227;-59
2022/11/27 16:48:57;;;;;;;;;25.00;23.00;;;;;11.84;61.31;100960.59;6339346;22;46139;-58
2022/11/27 16:51:27;;;;;;;;;19.00;18.50;;;;;11.84;61.09;100962.34;6335179;22;45413;-59
2022/11/27 16:53:54;;;;;;;;;13.75;13.25;;;;;11.85;61.27;100962.31;6341093;22;45248;-61
2022/11/27 16:56:23;;;;;;;;;13.25;10.50;;;;;11.80;61.42;100961.53;6338572;22;45459;-60
2022/11/27 16:58:50;;;;;;;;;12.75;11.75;;;;;11.82;61.33;100962.38;6340798;22;45376;-58
2022/11/27 17:01:23;;;;;;;;;14.75;14.75;;;;;11.81;61.21;100958.00;6341237;22;45191;-57
2022/11/27 17:03:49;;;;;;;;;21.00;19.50;;;;;11.85;60.91;100953.56;6341337;22;45286;-56
2022/11/27 17:06:17;;;;;;;;;19.00;18.00;;;;;11.86;61.20;100942.13;6339129;22;45460;-53
2022/11/27 17:08:43;;;;;;;;;23.25;23.25;;;;;11.84;61.03;100943.94;6338856;22;46039;-55
2022/11/27 17:11:10;;;;;;;;;21.00;17.00;;;;;11.83;61.18;100935.13;6340716;22;45208;-61
2022/11/27 17:13:35;;;;;;;;;25.75;22.00;;;;;11.87;61.33;100934.22;6340571;22;45301;-56
2022/11/27 17:16:01;;;;;;;;;20.00;14.25;;;;;11.89;61.18;100933.31;6341258;22;45115;-58
2022/11/27 17:18:26;;;;;;;;;18.00;16.00;;;;;11.87;61.19;100922.78;6341695;22;45394;-64
2022/11/27 17:20:51;;;;;;;;;22.00;16.25;;;;;11.87;61.11;100917.53;6335717;22;45386;-58
2022/11/27 17:23:17;;;;;;;;;17.50;13.00;;;;;11.87;61.09;100917.53;6341795;22;45389;-58
2022/11/27 17:25:42;;;;;;;;;24.75;19.25;;;;;11.88;61.16;100898.22;6341307;22;45365;-61
2022/11/27 17:28:07;;;;;;;;;22.50;19.75;;;;;11.90;61.18;100900.81;6340974;22;46778;-60
2022/11/27 17:30:33;;;;;;;;;22.75;20.50;;;;;11.89;61.04;100893.81;6341080;22;45330;-58
2022/11/27 17:32:58;;;;;;;;;20.50;15.00;;;;;11.90;61.14;100887.63;6341478;22;45293;-60
2022/11/27 17:35:23;;;;;;;;;16.50;15.00;;;;;11.90;61.01;100890.28;6341076;22;45313;-62
2022/11/27 17:37:49;;;;;;;;;19.50;16.25;;;;;11.90;61.11;100883.25;6340651;22;45924;-58
2022/11/27 17:40:14;;;;;;;;;15.25;14.75;;;;;11.84;61.07;100867.56;6341409;22;45246;-67
2022/11/27 17:42:39;;;;;;;;;19.25;19.25;;;;;11.89;61.20;100873.63;6339338;22;45295;-63
2022/11/27 17:45:05;;;;;;;;;21.50;18.50;;;;;11.93;60.82;100864.75;6341580;22;45256;-49
2022/11/27 17:47:32;;;;;;;;;24.25;20.50;;;;;11.95;60.93;100872.63;6339125;22;47070;-53
2022/11/27 17:49:58;;;;;;;;;31.25;28.00;;;;;11.96;61.13;100874.41;6337714;22;45225;-57
2022/11/27 17:52:23;;;;;;;;;20.25;19.25;;;;;11.96;60.96;100875.28;6337739;22;45585;-59
2022/11/27 17:54:49;;;;;;;;;24.50;23.00;;;;;11.95;61.14;100873.50;6341283;22;45215;-58
2022/11/27 17:57:14;;;;;;;;;22.75;21.00;;;;;11.99;61.12;100877.00;6340527;22;45263;-59
2022/11/27 17:59:39;;;;;;;;;23.00;22.50;;;;;11.99;61.21;100892.81;6340954;22;45282;-58
2022/11/27 18:02:05;;;;;;;;;34.25;31.25;;;;;11.98;60.98;100878.75;6340907;22;45193;-57
2022/11/27 18:04:31;;;;;;;;;36.50;32.00;;;;;11.96;60.70;100875.28;6340824;22;45372;-58
2022/11/27 18:06:57;;;;;;;;;37.25;34.50;;;;;11.92;61.17;100857.75;6339638;22;45319;-59
2022/11/27 18:09:22;;;;;;;;;38.00;33.00;;;;;11.96;61.02;100864.75;6340547;22;45395;-58
2022/11/27 18:11:48;;;;;;;;;48.25;38.00;;;;;11.92;61.22;100852.47;6341012;22;45356;-60
2022/11/27 18:14:13;;;;;;;;;45.25;37.00;;;;;11.93;61.07;100854.22;6341692;22;45230;-58
2022/11/27 18:16:39;;;;;;;;;46.00;37.00;;;;;11.92;60.95;100849.84;6341133;22;46261;-58
2022/11/27 18:19:08;;;;;;;;;42.50;33.25;;;;;11.90;61.07;100842.88;6340480;22;45340;-59
2022/11/27 18:21:34;;;;;;;;;30.50;27.00;;;;;11.89;61.04;100839.38;6335321;22;45332;-61
2022/11/27 18:24:00;;;;;;;;;27.00;24.75;;;;;11.90;61.00;100838.50;6340122;22;45147;-62
2022/11/27 18:26:25;;;;;;;;;44.00;30.50;;;;;11.91;61.05;100836.72;6340425;22;45285;-59
2022/11/27 18:28:55;;;;;;;;;29.50;27.00;;;;;11.88;61.30;100821.84;6339812;22;45294;-58
2022/11/27 18:31:21;;;;;;;;;30.00;26.25;;;;;11.95;61.29;100819.94;6341099;22;45337;-57
2022/11/27 18:33:47;;;;;;;;;25.50;23.75;;;;;11.95;61.02;100815.56;6341118;22;45440;-58
2022/11/27 18:36:13;;;;;;;;;27.00;25.75;;;;;11.97;61.04;100807.66;6340912;22;45965;-57
2022/11/27 18:38:41;;;;;;;;;27.25;27.00;;;;;11.98;60.95;100810.25;6340721;22;45178;-59
2022/11/27 18:41:07;;;;;;;;;29.00;26.75;;;;;12.00;61.16;100810.25;6341086;22;45400;-61
2022/11/27 18:43:33;;;;;;;;;28.25;26.25;;;;;11.99;61.08;100801.47;6340843;22;45503;-61
2022/11/27 18:45:59;;;;;;;;;29.25;25.75;;;;;11.98;61.05;100809.41;6340897;22;46466;-60
2022/11/27 18:48:24;;;;;;;;;28.00;26.75;;;;;11.97;61.00;100816.41;6340342;22;45328;-60
2022/11/27 18:50:50;;;;;;;;;24.00;22.50;;;;;11.98;61.18;100827.84;6334804;22;45747;-59
2022/11/27 18:53:15;;;;;;;;;23.00;20.25;;;;;11.95;61.18;100827.84;6340948;22;45606;-58
2022/11/27 18:55:41;;;;;;;;;21.50;21.50;;;;;11.93;60.78;100814.72;6340544;22;46214;-61
2022/11/27 18:58:06;;;;;;;;;27.75;25.75;;;;;11.92;60.87;100817.38;6341421;22;45270;-59
2022/11/27 19:00:31;;;;;;;;;24.50;22.50;;;;;11.90;60.89;100820.06;6341051;22;45276;-60
2022/11/27 19:02:57;;;;;;;;;28.75;25.75;;;;;11.86;60.89;100824.50;6340543;22;45587;-60
2022/11/27 19:05:22;;;;;;;;;25.25;24.25;;;;;11.87;60.72;100812.19;6339671;22;46031;-58
2022/11/27 19:07:47;;;;;;;;;23.50;20.00;;;;;11.83;60.83;100803.47;6340228;22;45131;-59
2022/11/27 19:10:13;;;;;;;;;31.75;27.25;;;;;11.77;60.69;100789.56;6339820;22;45321;-57
2022/11/27 19:12:38;;;;;;;;;24.75;22.00;;;;;11.76;60.91;100783.44;6338717;22;45432;-60
2022/11/27 19:15:04;;;;;;;;;30.00;25.00;;;;;11.78;60.80;100778.16;6340919;22;46213;-53
2022/11/27 19:17:29;;;;;;;;;19.25;18.00;;;;;11.71;60.77;100770.38;6341080;22;45189;-57
2022/11/27 19:19:55;;;;;;;;;23.75;19.75;;;;;11.70;60.77;100763.34;6338747;22;45338;-57
2022/11/27 19:22:20;;;;;;;;;21.25;15.75;;;;;11.70;60.66;100767.78;6336158;22;45484;-57
2022/11/27 19:24:45;;;;;;;;;22.75;18.50;;;;;11.69;60.67;100776.56;6340436;22;45226;-59
2022/11/27 19:27:11;;;;;;;;;18.00;16.75;;;;;11.68;60.54;100774.81;6339875;22;45648;-59
2022/11/27 19:29:36;;;;;;;;;17.50;15.75;;;;;11.61;60.68;100768.81;6339309;22;45361;-57
2022/11/27 19:32:02;;;;;;;;;18.50;17.00;;;;;11.66;60.65;100780.13;6338452;22;45448;-57
2022/11/27 19:34:27;;;;;;;;;17.00;17.00;;;;;11.62;60.66;100775.81;6339375;22;46802;-59
2022/11/27 19:36:53;;;;;;;;;15.25;13.00;;;;;11.52;60.67;100766.31;6339730;22;45638;-69
2022/11/27 19:39:18;;;;;;;;;21.00;20.75;;;;;11.58;60.65;100789.03;6340321;22;45174;-54
2022/11/27 19:41:44;;;;;;;;;20.00;17.00;;;;;11.59;60.66;100786.38;6338879;22;45406;-58
2022/11/27 19:44:11;;;;;;;;;25.75;23.00;;;;;11.57;60.65;100787.31;6337772;22;45707;-56
2022/11/27 19:46:38;;;;;;;;;24.25;24.25;;;;;11.57;60.68;100793.41;6339940;22;45181;-58
2022/11/27 19:49:07;;;;;;;;;19.25;18.00;;;;;11.54;60.65;100781.19;6337561;22;45176;-60
2022/11/27 19:51:35;;;;;;;;;37.75;34.00;;;;;11.55;60.76;100779.44;6340178;22;45390;-59
2022/11/27 19:54:02;;;;;;;;;39.00;32.75;;;;;11.55;60.72;100782.94;6339967;22;45360;-57
2022/11/27 19:56:31;;;;;;;;;28.75;25.50;;;;;11.53;60.78;100791.75;6339164;22;45252;-56
2022/11/27 19:58:56;;;;;;;;;30.00;23.75;;;;;11.53;61.01;100800.53;6339657;22;45275;-59
2022/11/27 20:01:22;;;;;;;;;32.00;31.25;;;;;11.52;60.91;100800.53;6340451;22;45227;-58
2022/11/27 20:03:47;;;;;;;;;26.00;23.00;;;;;11.49;60.95;100793.56;6338331;22;45889;-58
2022/11/27 20:06:18;;;;;;;;;25.75;25.00;;;;;11.49;61.02;100795.34;6340649;22;45250;-55
2022/11/27 20:08:46;;;;;;;;;28.75;25.25;;;;;11.49;60.92;100790.06;6339845;22;45169;-57
2022/11/27 20:11:14;;;;;;;;;30.25;28.25;;;;;11.46;60.96;100788.34;6339255;22;45697;-57
2022/11/27 20:13:40;;;;;;;;;31.75;31.50;;;;;11.46;61.02;100785.72;6340799;22;45374;-57
2022/11/27 20:16:12;;;;;;;;;43.25;35.25;;;;;11.43;61.18;100785.75;6341536;22;45281;-56
2022/11/27 20:18:48;;;;;;;;;41.00;35.25;;;;;11.44;61.03;100786.66;6341208;22;45312;-55
2022/11/27 20:21:19;;;;;;;;;30.25;25.00;;;;;11.36;61.29;100776.25;6339306;22;45290;-57
2022/11/27 20:23:46;;;;;;;;;33.75;30.50;;;;;11.32;61.45;100778.06;6341266;22;46510;-55
2022/11/27 20:26:23;;;;;;;;;30.25;29.25;;;;;11.27;61.38;100761.50;6340562;22;45485;-55
2022/11/27 20:28:49;;;;;;;;;23.75;21.75;;;;;11.21;61.67;100762.44;6339446;22;45325;-56
2022/11/27 20:31:24;;;;;;;;;23.50;22.25;;;;;11.19;61.50;100761.63;6340838;22;45328;-51
2022/11/27 20:33:55;;;;;;;;;23.00;19.50;;;;;11.13;61.64;100761.72;6340699;22;47374;-54
2022/11/27 20:36:21;;;;;;;;;23.75;20.50;;;;;11.03;61.93;100755.75;6309551;22;45210;-53
2022/11/27 20:38:47;;;;;;;;;21.50;20.25;;;;;11.04;61.88;100751.34;6339441;22;45369;-55
2022/11/27 20:41:15;;;;;;;;;16.75;15.25;;;;;10.97;61.88;100753.19;6338050;22;45421;-50
2022/11/27 20:43:41;;;;;;;;;22.25;19.75;;;;;10.93;61.89;100751.53;6339672;22;46865;-55
2022/11/27 20:46:07;;;;;;;;;19.00;17.00;;;;;10.87;62.21;100751.63;6340859;22;45255;-53
2022/11/27 20:48:33;;;;;;;;;31.75;31.25;;;;;10.86;61.94;100736.72;6340727;22;45274;-53
2022/11/27 20:51:12;;;;;;;;;20.75;19.75;;;;;10.84;62.05;100730.63;6340956;22;45243;-53
2022/11/27 20:53:39;;;;;;;;;23.00;22.25;;;;;10.83;62.20;100736.75;6333718;22;46283;-52
2022/11/27 20:56:07;;;;;;;;;15.25;15.25;;;;;10.79;62.17;100746.47;6340520;22;45345;-50
2022/11/27 20:58:37;;;;;;;;;24.00;21.00;;;;;10.78;62.19;100762.25;6339569;22;45283;-54
2022/11/27 21:01:17;;;;;;;;;18.00;17.75;;;;;10.69;62.45;100768.50;6341549;22;45465;-54
2022/11/27 21:03:44;;;;;;;;;17.00;17.00;;;;;10.67;62.55;100772.94;6341708;22;45211;-53
2022/11/27 21:06:09;;;;;;;;;21.25;17.75;;;;;10.60;62.94;100776.53;6341331;22;45277;-52
2022/11/27 21:08:35;;;;;;;;;18.75;15.75;;;;;10.59;62.93;100773.03;6340343;22;45338;-51
2022/11/27 21:11:11;;;;;;;;;20.25;18.00;;;;;10.55;62.81;100780.09;6340245;22;45261;-53
2022/11/27 21:13:38;;;;;;;;;22.25;18.75;;;;;10.51;63.00;100753.88;6340926;22;45346;-53
2022/11/27 21:16:09;;;;;;;;;21.75;20.50;;;;;10.51;63.06;100743.38;6340916;22;45267;-52
2022/11/27 21:18:35;;;;;;;;;24.50;23.50;;;;;10.48;62.90;100733.78;6338186;22;45267;-51
2022/11/27 21:21:10;;;;;;;;;16.75;14.75;;;;;10.44;63.12;100741.69;6338297;22;45326;-53
2022/11/27 21:23:36;;;;;;;;;16.50;15.50;;;;;10.37;63.27;100738.31;6332947;22;45201;-53
2022/11/27 21:26:02;;;;;;;;;23.25;20.25;;;;;10.34;63.50;100733.94;6337188;22;45507;-54
2022/11/27 21:28:29;;;;;;;;;18.50;17.00;;;;;10.32;63.47;100748.81;6336319;22;45372;-54
2022/11/27 21:31:09;;;;;;;;;17.75;16.00;;;;;10.27;63.57;100739.28;6338253;22;45495;-52
2022/11/27 21:33:36;;;;;;;;;20.50;17.00;;;;;10.24;63.76;100738.44;6340268;22;45230;-52
2022/11/27 21:36:02;;;;;;;;;17.25;16.00;;;;;10.18;63.96;100735.03;6340378;22;45133;-52
2022/11/27 21:38:27;;;;;;;;;15.00;14.75;;;;;10.16;64.07;100731.53;6340764;22;45464;-53
2022/11/27 21:40:53;;;;;;;;;14.75;14.25;;;;;10.12;64.12;100735.09;6340115;22;45512;-52
2022/11/27 21:43:19;;;;;;;;;15.25;13.25;;;;;10.11;64.19;100734.19;6340092;22;46069;-54
2022/11/27 21:45:44;;;;;;;;;15.75;15.00;;;;;10.11;64.18;100746.47;6339348;22;45286;-54
2022/11/27 21:48:12;;;;;;;;;15.50;15.00;;;;;10.15;64.30;100745.53;6340690;22;45423;-52
2022/11/27 21:50:38;;;;;;;;;16.50;13.00;;;;;10.03;64.38;100723.78;6339260;22;45441;-53
2022/11/27 21:53:05;;;;;;;;;14.75;14.00;;;;;10.01;64.47;100733.47;6334898;22;45114;-54
2022/11/27 21:55:30;;;;;;;;;15.00;14.75;;;;;9.97;64.50;100736.13;6340339;22;45147;-52
2022/11/27 21:57:55;;;;;;;;;16.75;12.25;;;;;9.94;64.82;100734.41;6340241;22;45076;-52
2022/11/27 22:00:21;;;;;;;;;13.50;12.25;;;;;9.95;64.91;100730.03;6339717;22;51558;-54
2022/11/27 22:02:47;;;;;;;;;14.50;13.50;;;;;9.92;64.72;100730.94;6338927;22;45975;-53
2022/11/27 22:05:12;;;;;;;;;11.25;9.25;;;;;9.90;64.91;100725.72;6333609;22;45352;-52
2022/11/27 22:07:37;;;;;;;;;16.50;14.00;;;;;9.90;64.92;100727.47;6338109;22;45604;-50
2022/11/27 22:10:05;;;;;;;;;12.75;12.25;;;;;9.87;65.16;100722.25;6338897;22;45426;-52
2022/11/27 22:12:31;;;;;;;;;12.75;12.75;;;;;9.88;65.29;100710.88;6336886;22;45340;-50
2022/11/27 22:14:56;;;;;;;;;12.25;12.25;;;;;9.88;65.10;100708.25;6341035;22;45255;-53
2022/11/27 22:17:23;;;;;;;;;17.50;13.75;;;;;9.85;65.25;100703.00;6339352;22;45188;-52
2022/11/27 22:19:48;;;;;;;;;15.75;12.75;;;;;9.85;65.34;100703.00;6340795;22;45380;-49
2022/11/27 22:22:14;;;;;;;;;13.00;11.75;;;;;9.84;65.59;100696.06;6340939;22;45202;-52
2022/11/27 22:24:40;;;;;;;;;13.50;12.75;;;;;9.83;65.28;100694.31;6338904;22;45253;-52
2022/11/27 22:27:09;;;;;;;;;11.25;9.50;;;;;9.82;65.42;100692.56;6340588;22;45451;-54
2022/11/27 22:29:34;;;;;;;;;10.00;10.00;;;;;9.79;65.51;100688.22;6339290;22;45213;-52
2022/11/27 22:31:59;;;;;;;;;9.00;5.25;;;;;9.81;65.54;100696.06;6340724;22;49400;-54
2022/11/27 22:34:25;;;;;;;;;9.75;8.75;;;;;9.78;65.69;100690.88;6341109;22;45280;-52
2022/11/27 22:36:50;;;;;;;;;11.50;8.50;;;;;9.78;65.80;100701.38;6340735;22;44899;-53
2022/11/27 22:39:16;;;;;;;;;8.50;8.50;;;;;9.77;65.74;100695.22;6341510;22;45208;-54
2022/11/27 22:41:41;;;;;;;;;11.75;9.50;;;;;9.80;65.64;100699.56;6341227;22;45293;-54
2022/11/27 22:44:10;;;;;;;;;10.25;10.25;;;;;9.84;65.53;100698.66;6341500;22;45182;-52
2022/11/27 22:46:41;;;;;;;;;13.25;11.00;;;;;9.82;65.75;100700.44;6341850;22;45190;-54
2022/11/27 22:49:06;;;;;;;;;9.25;8.00;;;;;9.81;65.88;100704.81;6340556;22;45274;-54
2022/11/27 22:51:34;;;;;;;;;11.75;10.00;;;;;9.85;66.12;100705.63;6341852;22;46080;-51
2022/11/27 22:54:00;;;;;;;;;13.75;11.75;;;;;9.81;65.98;100688.19;6342209;22;45206;-55
2022/11/27 22:56:26;;;;;;;;;11.75;9.50;;;;;9.82;66.13;100705.69;6341779;22;45276;-56
2022/11/27 22:58:52;;;;;;;;;14.25;11.25;;;;;9.81;66.21;100704.81;6340632;22;45392;-56
2022/11/27 23:01:23;;;;;;;;;12.50;10.00;;;;;9.80;66.36;100699.56;6339815;22;48154;-54
2022/11/27 23:03:49;;;;;;;;;8.75;8.00;;;;;9.80;66.42;100694.31;6341126;22;45221;-54
2022/11/27 23:06:16;;;;;;;;;10.75;8.00;;;;;9.80;66.31;100694.31;6313247;22;45222;-55
2022/11/27 23:08:44;;;;;;;;;6.25;5.50;;;;;9.80;66.32;100704.81;6340567;22;45324;-55
2022/11/27 23:11:14;;;;;;;;;11.00;7.75;;;;;9.80;66.50;100700.47;6337676;22;46154;-54
2022/11/27 23:13:39;;;;;;;;;8.50;8.50;;;;;9.78;66.52;100701.38;6337405;22;45276;-53
2022/11/27 23:16:06;;;;;;;;;10.25;10.00;;;;;9.84;66.59;100703.91;6339559;22;45290;-53
2022/11/27 23:18:33;;;;;;;;;10.25;8.00;;;;;9.85;66.50;100698.66;6339260;22;45411;-52
2022/11/27 23:20:58;;;;;;;;;9.25;7.75;;;;;9.83;66.77;100707.44;6340407;22;45407;-49
2022/11/27 23:23:24;;;;;;;;;8.00;6.25;;;;;9.84;66.68;100709.16;6340990;22;45389;-51
2022/11/27 23:25:49;;;;;;;;;8.50;7.00;;;;;9.87;66.75;100703.88;6339980;22;45273;-53
2022/11/27 23:28:15;;;;;;;;;11.75;10.25;;;;;9.87;66.65;100696.88;6340644;22;45349;-52
2022/11/27 23:30:40;;;;;;;;;8.75;7.75;;;;;9.88;66.69;100693.34;6340523;22;45174;-54
2022/11/27 23:33:06;;;;;;;;;9.00;8.00;;;;;9.86;66.73;100699.50;6341102;22;45367;-54
2022/11/27 23:35:31;;;;;;;;;8.50;8.50;;;;;9.85;67.06;100687.25;6340668;22;45245;-53
2022/11/27 23:37:56;;;;;;;;;12.75;10.00;;;;;9.85;66.98;100693.41;6340879;22;45174;-53
2022/11/27 23:40:22;;;;;;;;;8.25;8.25;;;;;9.88;66.98;100692.50;6340105;22;45848;-51
2022/11/27 23:42:47;;;;;;;;;8.50;8.50;;;;;9.91;66.89;100693.31;6340725;22;45175;-54
2022/11/27 23:45:13;;;;;;;;;9.25;8.00;;;;;9.93;67.03;100701.19;6339130;22;45152;-51
2022/11/27 23:47:38;;;;;;;;;14.25;12.50;;;;;9.95;67.11;100698.53;6340524;22;45167;-52
2022/11/27 23:50:05;;;;;;;;;7.75;7.50;;;;;9.97;67.12;100694.13;6339904;22;45445;-50
2022/11/27 23:52:30;;;;;;;;;8.25;8.00;;;;;9.95;67.04;100695.91;6340142;22;45176;-54
2022/11/27 23:54:55;;;;;;;;;11.50;9.75;;;;;9.95;67.15;100691.53;6340792;22;45089;-54
2022/11/27 23:57:21;;;;;;;;;10.00;8.25;;;;;9.97;67.01;100684.50;6338454;22;45206;-52
2022/11/27 23:59:46;;;;;;;;;9.25;9.00;;;;;9.99;67.09;100687.13;6340261;22;45318;-51
